Time;durP1;ratioP1;P1;durP2;ratioP2;P2;SDS_P1;SDS_P2;PMS_P1;PMS_P2;Temp;Humidity;BMP_temperature;BMP_pressure;BME280_temperature;BME280_humidity;BME280_pressure;Samples;Min_cycle;Max_cycle;Signal;HPM_P1;HPM_P2
2023/01/20 00:02:15;;;;;;;5.10;3.10;;;0.40;99.90;;;;;;5056236;28;20114;-58
2023/01/20 00:04:43;;;;;;;3.70;3.00;;;0.40;99.90;;;;;;5073868;28;20053;-57
2023/01/20 00:07:10;;;;;;;5.65;3.92;;;0.40;99.90;;;;;;5063846;28;20049;-56
2023/01/20 00:09:37;;;;;;;3.95;3.15;;;0.40;99.90;;;;;;5070454;28;20110;-55
2023/01/20 00:12:04;;;;;;;4.55;3.35;;;0.40;99.90;;;;;;5066752;28;20492;-56
2023/01/20 00:14:31;;;;;;;5.93;3.72;;;0.40;99.90;;;;;;5063105;28;20085;-41
2023/01/20 00:16:59;;;;;;;4.75;3.65;;;0.40;99.90;;;;;;5078082;28;20084;-51
2023/01/20 00:19:26;;;;;;;7.82;4.30;;;0.40;99.90;;;;;;5067286;28;20131;-52
2023/01/20 00:21:54;;;;;;;5.30;3.83;;;0.40;99.90;;;;;;5056512;28;20614;-54
2023/01/20 00:24:21;;;;;;;6.35;4.63;;;0.40;99.90;;;;;;5064283;28;20216;-49
2023/01/20 00:26:47;;;;;;;7.28;4.65;;;0.40;99.90;;;;;;5064021;28;20052;-56
2023/01/20 00:29:14;;;;;;;6.75;5.10;;;0.40;99.90;;;;;;5056081;28;20049;-56
2023/01/20 00:31:41;;;;;;;7.25;5.65;;;0.50;99.90;;;;;;5056702;28;20037;-56
2023/01/20 00:34:09;;;;;;;9.07;5.85;;;0.50;99.90;;;;;;5055024;28;20102;-55
2023/01/20 00:36:36;;;;;;;10.80;6.70;;;0.50;99.90;;;;;;5064102;28;20052;-57
2023/01/20 00:39:04;;;;;;;8.90;6.60;;;0.50;99.90;;;;;;5064767;28;20084;-55
2023/01/20 00:41:31;;;;;;;9.93;7.45;;;0.60;99.90;;;;;;5071940;28;20052;-48
2023/01/20 00:43:58;;;;;;;15.07;8.93;;;0.60;99.90;;;;;;5073190;28;20057;-56
2023/01/20 00:46:24;;;;;;;17.45;11.40;;;0.60;99.90;;;;;;5072344;28;20463;-55
2023/01/20 00:48:51;;;;;;;18.83;11.40;;;0.60;99.90;;;;;;5054616;28;20107;-56
2023/01/20 00:51:19;;;;;;;23.17;12.90;;;0.60;99.90;;;;;;5055695;28;20102;-57
2023/01/20 00:53:46;;;;;;;16.17;10.73;;;0.70;99.90;;;;;;5067918;28;20454;-54
2023/01/20 00:56:14;;;;;;;19.75;11.57;;;0.70;99.90;;;;;;5067109;28;20141;-53
2023/01/20 00:58:42;;;;;;;22.33;13.70;;;0.60;99.90;;;;;;5070631;28;20461;-56
2023/01/20 01:01:09;;;;;;;21.17;13.65;;;0.70;99.90;;;;;;5055124;28;20415;-55
2023/01/20 01:03:36;;;;;;;25.05;14.60;;;0.70;99.90;;;;;;5060218;28;20049;-54
2023/01/20 01:06:07;;;;;;;23.50;13.93;;;0.70;99.90;;;;;;5055142;28;20099;-55
2023/01/20 01:08:34;;;;;;;24.90;14.73;;;0.80;99.90;;;;;;5059551;28;20412;-55
2023/01/20 01:11:01;;;;;;;23.48;14.30;;;0.80;99.90;;;;;;5068981;28;20044;-54
2023/01/20 01:13:30;;;;;;;28.13;15.63;;;0.80;99.90;;;;;;5065629;28;20044;-55
2023/01/20 01:15:56;;;;;;;26.23;15.52;;;0.80;99.90;;;;;;5066291;28;20052;-56
2023/01/20 01:18:23;;;;;;;26.00;16.20;;;0.80;99.90;;;;;;5066491;28;20037;-56
2023/01/20 01:20:50;;;;;;;24.67;15.27;;;0.80;99.90;;;;;;5057796;28;20109;-56
2023/01/20 01:23:17;;;;;;;23.88;14.70;;;0.80;99.90;;;;;;5060043;28;20136;-52
2023/01/20 01:25:44;;;;;;;22.77;15.05;;;0.80;99.90;;;;;;5068029;28;20106;-56
2023/01/20 01:28:10;;;;;;;26.50;14.60;;;0.80;99.90;;;;;;5072203;28;20076;-56
2023/01/20 01:30:38;;;;;;;24.77;14.82;;;0.80;99.90;;;;;;5067673;28;20049;-54
2023/01/20 01:33:05;;;;;;;21.33;14.77;;;0.90;99.90;;;;;;5057333;28;20670;-56
2023/01/20 01:35:32;;;;;;;25.10;13.85;;;0.90;99.90;;;;;;5073343;28;20098;-54
2023/01/20 01:37:59;;;;;;;18.92;12.98;;;0.90;99.90;;;;;;5063221;28;20488;-54
2023/01/20 01:40:26;;;;;;;17.65;12.40;;;0.90;99.90;;;;;;5071636;28;20086;-54
2023/01/20 01:42:53;;;;;;;20.80;13.73;;;0.90;99.90;;;;;;5065461;28;20565;-56
2023/01/20 01:45:24;;;;;;;18.08;12.05;;;0.90;99.90;;;;;;5061293;28;20060;-55
2023/01/20 01:47:56;;;;;;;20.27;12.50;;;0.90;99.90;;;;;;5059650;28;20484;-55
2023/01/20 01:50:25;;;;;;;19.73;13.15;;;0.90;99.90;;;;;;5059336;28;20072;-56
2023/01/20 01:52:53;;;;;;;21.75;13.10;;;0.90;99.90;;;;;;5053278;28;20053;-54
2023/01/20 01:55:21;;;;;;;19.83;13.30;;;0.90;99.90;;;;;;5060447;28;20105;-48
2023/01/20 01:57:47;;;;;;;19.65;12.23;;;0.90;99.90;;;;;;5071008;28;20088;-54
2023/01/20 02:00:15;;;;;;;21.45;13.43;;;0.90;99.90;;;;;;5053840;28;20087;-53
2023/01/20 02:02:42;;;;;;;20.52;13.50;;;0.90;99.90;;;;;;5068290;28;20580;-55
2023/01/20 02:05:11;;;;;;;20.85;13.20;;;0.90;99.90;;;;;;5066342;28;20412;-55
2023/01/20 02:07:38;;;;;;;23.35;13.45;;;0.90;99.90;;;;;;5061398;28;20076;-54
2023/01/20 02:10:05;;;;;;;19.80;13.57;;;0.90;99.90;;;;;;5069356;28;20052;-44
2023/01/20 02:12:32;;;;;;;23.52;14.88;;;0.90;99.90;;;;;;5081766;28;20060;-52
2023/01/20 02:14:59;;;;;;;26.77;16.35;;;0.90;99.90;;;;;;5057666;28;20099;-53
2023/01/20 02:17:28;;;;;;;26.52;16.52;;;0.80;99.90;;;;;;5054953;28;20081;-56
2023/01/20 02:20:15;;;;;;;25.17;16.65;;;0.90;99.90;;;;;;5058684;28;20092;-55
2023/01/20 02:22:45;;;;;;;25.45;15.63;;;0.90;99.90;;;;;;5045093;28;20049;-52
2023/01/20 02:25:40;;;;;;;25.90;16.30;;;0.90;99.90;;;;;;5066560;28;20094;-51
2023/01/20 02:28:29;;;;;;;26.60;16.60;;;0.90;99.90;;;;;;5058553;28;20086;-55
2023/01/20 02:31:19;;;;;;;30.65;19.15;;;0.90;99.90;;;;;;5069395;28;20040;-48
2023/01/20 02:33:48;;;;;;;31.77;18.92;;;0.90;99.90;;;;;;5049715;28;20087;-51
2023/01/20 02:36:18;;;;;;;30.88;19.17;;;0.90;99.90;;;;;;5052650;28;20122;-53
2023/01/20 02:38:46;;;;;;;33.25;18.95;;;0.90;99.90;;;;;;5057037;28;20116;-56
2023/01/20 02:41:16;;;;;;;30.90;18.70;;;0.90;99.90;;;;;;5080659;28;20524;-53
2023/01/20 02:43:44;;;;;;;34.13;20.40;;;0.90;99.90;;;;;;5085780;28;20565;-54
2023/01/20 02:46:14;;;;;;;34.15;19.60;;;0.80;99.90;;;;;;5052683;28;20102;-55
2023/01/20 02:48:43;;;;;;;35.88;21.55;;;0.90;99.90;;;;;;5069724;28;20452;-54
2023/01/20 02:51:12;;;;;;;34.35;19.83;;;0.80;99.90;;;;;;5070390;28;20492;-54
2023/01/20 02:53:43;;;;;;;37.72;21.73;;;0.90;99.90;;;;;;5056702;28;20076;-51
2023/01/20 02:56:10;;;;;;;38.83;21.07;;;0.90;99.90;;;;;;5063703;28;20080;-53
2023/01/20 02:58:39;;;;;;;36.17;21.27;;;0.90;99.90;;;;;;5066009;28;20446;-53
2023/01/20 03:01:08;;;;;;;34.85;20.27;;;0.90;99.90;;;;;;5056695;28;20141;-55
2023/01/20 03:03:36;;;;;;;35.72;19.73;;;0.80;99.90;;;;;;5053134;28;20155;-54
2023/01/20 03:06:05;;;;;;;38.78;20.98;;;0.90;99.90;;;;;;5070716;28;20129;-53
2023/01/20 03:08:33;;;;;;;34.85;19.80;;;0.90;99.90;;;;;;5066812;28;20048;-53
2023/01/20 03:11:04;;;;;;;35.42;19.98;;;0.80;99.90;;;;;;5054348;28;20461;-55
2023/01/20 03:13:32;;;;;;;32.53;19.63;;;0.90;99.90;;;;;;5051756;28;20560;-54
2023/01/20 03:16:01;;;;;;;33.88;19.38;;;0.80;99.90;;;;;;5053373;28;20056;-55
2023/01/20 03:18:29;;;;;;;30.40;18.90;;;0.80;99.90;;;;;;5062082;28;20516;-52
2023/01/20 03:20:56;;;;;;;35.53;19.55;;;0.80;99.90;;;;;;5062317;28;20060;-51
2023/01/20 03:23:23;;;;;;;33.60;17.98;;;0.80;99.90;;;;;;5065376;28;20102;-53
2023/01/20 03:25:51;;;;;;;36.58;20.35;;;0.80;99.90;;;;;;5051787;28;20060;-55
2023/01/20 03:28:18;;;;;;;34.92;19.80;;;0.80;99.90;;;;;;5060502;28;20480;-55
2023/01/20 03:30:44;;;;;;;36.58;19.75;;;0.80;99.90;;;;;;5064767;28;20126;-55
2023/01/20 03:33:11;;;;;;;33.72;19.67;;;0.90;99.90;;;;;;5059758;28;20097;-55
2023/01/20 03:35:38;;;;;;;37.72;21.55;;;0.80;99.90;;;;;;5071205;28;20075;-50
2023/01/20 03:38:05;;;;;;;36.28;20.38;;;0.80;99.90;;;;;;5087909;28;20524;-54
2023/01/20 03:40:43;;;;;;;35.75;19.73;;;0.80;99.90;;;;;;5052335;28;20048;-50
2023/01/20 03:43:15;;;;;;;33.08;18.92;;;0.80;99.90;;;;;;5053935;28;20481;-50
2023/01/20 03:45:45;;;;;;;36.08;20.20;;;0.80;99.90;;;;;;5058072;28;20057;-54
2023/01/20 03:48:15;;;;;;;37.05;21.17;;;0.80;99.90;;;;;;5062607;28;20053;-53
2023/01/20 03:50:44;;;;;;;35.60;18.48;;;0.80;99.90;;;;;;5072535;28;20080;-55
2023/01/20 03:53:18;;;;;;;36.38;19.42;;;0.80;99.90;;;;;;5063038;28;20131;-48
2023/01/20 03:55:47;;;;;;;30.20;17.73;;;0.80;99.90;;;;;;5062661;28;20045;-54
2023/01/20 03:58:16;;;;;;;31.33;18.63;;;0.80;99.90;;;;;;5068180;28;20053;-49
2023/01/20 04:00:44;;;;;;;33.83;18.23;;;0.80;99.90;;;;;;5074879;28;20040;-53
2023/01/20 04:03:13;;;;;;;29.98;17.38;;;0.80;99.90;;;;;;5076326;28;20098;-53
2023/01/20 04:05:40;;;;;;;31.65;18.15;;;0.80;99.90;;;;;;5073645;28;20461;-52
2023/01/20 04:08:08;;;;;;;31.70;17.77;;;0.80;99.90;;;;;;5074518;28;20041;-54
2023/01/20 04:10:35;;;;;;;30.48;17.38;;;0.80;99.90;;;;;;5073364;28;20504;-51
2023/01/20 04:13:02;;;;;;;40.97;20.13;;;0.90;99.90;;;;;;5060219;28;20045;-53
2023/01/20 04:15:32;;;;;;;38.92;19.83;;;0.80;99.90;;;;;;5060593;28;20138;-52
2023/01/20 04:18:20;;;;;;;33.03;18.65;;;0.80;99.90;;;;;;5072671;28;20116;-52
2023/01/20 04:20:50;;;;;;;31.13;17.98;;;0.80;99.90;;;;;;5075492;28;20110;-52
2023/01/20 04:23:19;;;;;;;34.55;17.42;;;0.80;99.90;;;;;;5067971;28;20135;-49
2023/01/20 04:25:46;;;;;;;37.15;18.80;;;0.90;99.90;;;;;;5056067;28;20077;-52
2023/01/20 04:28:13;;;;;;;33.55;18.48;;;0.80;99.90;;;;;;5059578;28;20476;-55
2023/01/20 04:30:41;;;;;;;34.65;19.10;;;0.80;99.90;;;;;;5074492;28;20072;-53
2023/01/20 04:33:08;;;;;;;40.60;20.42;;;0.90;99.90;;;;;;5069626;28;20094;-52
2023/01/20 04:35:34;;;;;;;39.80;20.13;;;0.90;99.90;;;;;;5072947;28;20048;-52
2023/01/20 04:38:01;;;;;;;37.60;19.92;;;0.90;99.90;;;;;;5066946;28;20570;-52
2023/01/20 04:40:28;;;;;;;35.83;18.77;;;0.90;99.90;;;;;;5074368;28;20090;-51
2023/01/20 04:42:55;;;;;;;34.33;19.48;;;0.80;99.90;;;;;;5065536;28;20056;-54
2023/01/20 04:45:22;;;;;;;34.10;18.35;;;0.80;99.90;;;;;;5072426;28;20056;-51
2023/01/20 04:47:50;;;;;;;36.28;19.27;;;0.90;99.90;;;;;;5072433;28;20052;-55
2023/01/20 04:50:17;;;;;;;36.58;20.27;;;0.80;99.90;;;;;;5057462;28;20547;-51
2023/01/20 04:52:44;;;;;;;35.45;19.92;;;0.80;99.90;;;;;;5066334;28;20047;-53
2023/01/20 04:55:11;;;;;;;35.90;19.25;;;0.90;99.90;;;;;;5071787;28;20094;-53
2023/01/20 04:57:37;;;;;;;32.83;19.83;;;0.90;99.90;;;;;;5072487;28;20087;-52
2023/01/20 05:00:05;;;;;;;35.00;19.83;;;0.90;99.90;;;;;;5078613;28;20049;-49
2023/01/20 05:02:32;;;;;;;33.35;19.25;;;1.00;99.90;;;;;;5062239;28;20075;-54
2023/01/20 05:05:00;;;;;;;36.60;19.08;;;0.90;99.90;;;;;;5069699;28;20048;-55
2023/01/20 05:07:27;;;;;;;33.60;19.45;;;0.90;99.90;;;;;;5070264;28;20488;-53
2023/01/20 05:09:54;;;;;;;33.47;19.58;;;0.90;99.90;;;;;;5071246;28;20086;-53
2023/01/20 05:12:21;;;;;;;32.28;19.27;;;0.90;99.90;;;;;;5070332;28;20080;-43
2023/01/20 05:14:47;;;;;;;31.40;18.95;;;0.90;99.90;;;;;;5071423;28;20088;-54
2023/01/20 05:17:14;;;;;;;33.80;18.80;;;0.80;99.90;;;;;;5061904;28;20076;-50
2023/01/20 05:19:42;;;;;;;33.17;19.13;;;0.80;99.90;;;;;;5064622;28;20099;-49
2023/01/20 05:22:10;;;;;;;37.42;20.67;;;0.80;99.90;;;;;;5071229;28;20058;-49
2023/01/20 05:24:37;;;;;;;36.70;20.83;;;0.90;99.90;;;;;;5080611;28;20475;-50
2023/01/20 05:27:04;;;;;;;38.10;20.88;;;0.80;99.90;;;;;;5071396;28;20149;-50
2023/01/20 05:29:31;;;;;;;36.38;20.05;;;0.90;99.90;;;;;;5069481;28;20443;-46
2023/01/20 05:31:57;;;;;;;33.65;19.25;;;0.90;99.90;;;;;;5065536;28;20199;-51
2023/01/20 05:34:24;;;;;;;36.22;19.63;;;0.80;99.90;;;;;;5063701;28;20087;-49
2023/01/20 05:36:52;;;;;;;36.53;20.23;;;0.80;99.90;;;;;;5072230;28;20059;-54
2023/01/20 05:39:20;;;;;;;34.90;19.85;;;0.80;99.90;;;;;;5055404;28;20052;-51
2023/01/20 05:41:47;;;;;;;39.78;20.90;;;0.80;99.90;;;;;;5062849;28;20083;-39
2023/01/20 05:44:14;;;;;;;39.55;21.95;;;0.80;99.90;;;;;;5060970;28;20156;-50
2023/01/20 05:46:41;;;;;;;35.75;21.77;;;0.80;99.90;;;;;;5065788;28;20078;-49
2023/01/20 05:49:10;;;;;;;40.17;22.50;;;0.80;99.90;;;;;;5066228;28;20082;-50
2023/01/20 05:51:37;;;;;;;40.53;22.00;;;0.80;99.90;;;;;;5061114;28;20806;-49
2023/01/20 05:54:04;;;;;;;41.15;23.45;;;0.80;99.90;;;;;;5070460;28;20250;-50
2023/01/20 05:56:32;;;;;;;41.75;23.98;;;0.80;99.90;;;;;;5064876;28;21799;-50
2023/01/20 05:58:59;;;;;;;45.05;22.42;;;0.80;99.90;;;;;;5067322;28;20237;-52
2023/01/20 06:01:25;;;;;;;42.78;23.00;;;0.90;99.90;;;;;;5060576;28;20491;-48
2023/01/20 06:03:52;;;;;;;43.97;23.23;;;0.80;99.90;;;;;;5064362;28;20119;-50
2023/01/20 06:06:19;;;;;;;46.00;23.58;;;0.90;99.90;;;;;;5062891;28;20086;-49
2023/01/20 06:08:46;;;;;;;47.55;24.42;;;0.80;99.90;;;;;;5060605;28;20053;-53
2023/01/20 06:11:14;;;;;;;48.10;25.33;;;0.80;99.90;;;;;;5064416;28;20442;-52
2023/01/20 06:13:42;;;;;;;51.65;23.58;;;0.80;99.90;;;;;;5059617;28;20049;-47
2023/01/20 06:16:09;;;;;;;45.08;24.05;;;0.80;99.90;;;;;;5067441;28;20499;-52
2023/01/20 06:18:35;;;;;;;45.83;23.77;;;0.80;99.90;;;;;;5055861;28;20114;-47
2023/01/20 06:21:02;;;;;;;44.75;24.58;;;0.80;99.90;;;;;;5060512;28;20052;-42
2023/01/20 06:23:29;;;;;;;51.47;25.95;;;0.80;99.90;;;;;;5061334;28;20484;-48
2023/01/20 06:26:00;;;;;;;45.55;25.45;;;0.90;99.90;;;;;;5062324;28;20072;-52
2023/01/20 06:28:26;;;;;;;49.65;25.45;;;0.90;99.90;;;;;;5067023;28;20064;-50
2023/01/20 06:31:00;;;;;;;49.75;27.80;;;0.80;99.90;;;;;;5069951;28;20079;-48
2023/01/20 06:33:27;;;;;;;45.83;26.13;;;0.80;99.90;;;;;;5064418;28;20049;-51
2023/01/20 06:35:55;;;;;;;49.88;25.83;;;0.90;99.90;;;;;;5069809;28;20383;-52
2023/01/20 06:38:22;;;;;;;54.55;26.10;;;0.90;99.90;;;;;;5070986;28;20071;-46
2023/01/20 06:40:48;;;;;;;50.13;26.70;;;0.90;99.90;;;;;;5058453;28;20138;-49
2023/01/20 06:43:15;;;;;;;53.35;27.27;;;0.80;99.90;;;;;;5058809;28;20590;-49
2023/01/20 06:45:42;;;;;;;48.80;25.70;;;0.90;99.90;;;;;;5063753;28;20550;-53
2023/01/20 06:48:10;;;;;;;52.03;27.30;;;0.90;99.90;;;;;;5068592;28;20422;-50
2023/01/20 06:50:37;;;;;;;50.95;27.05;;;0.90;99.90;;;;;;5059988;28;20139;-49
2023/01/20 06:53:04;;;;;;;50.80;27.23;;;0.90;99.90;;;;;;5052386;28;20057;-53
2023/01/20 06:55:31;;;;;;;52.80;27.48;;;0.90;99.90;;;;;;5053940;28;20061;-52
2023/01/20 06:57:57;;;;;;;54.55;28.95;;;0.90;99.90;;;;;;5046696;28;20574;-46
2023/01/20 07:00:24;;;;;;;58.30;29.58;;;0.90;99.90;;;;;;5066022;28;20103;-51
2023/01/20 07:02:51;;;;;;;50.80;27.92;;;0.90;99.90;;;;;;5065320;28;20590;-53
2023/01/20 07:05:19;;;;;;;58.15;28.95;;;0.90;99.90;;;;;;5063718;28;20456;-50
2023/01/20 07:07:46;;;;;;;51.10;27.25;;;0.90;99.90;;;;;;5088307;28;20048;-50
2023/01/20 07:10:13;;;;;;;56.72;29.17;;;0.90;99.90;;;;;;5082006;28;20445;-45
2023/01/20 07:12:40;;;;;;;50.03;26.38;;;0.90;99.90;;;;;;5091370;28;20056;-52
2023/01/20 07:15:08;;;;;;;51.88;28.85;;;0.90;99.90;;;;;;5089851;28;20555;-50
2023/01/20 07:17:34;;;;;;;59.30;29.33;;;0.90;99.90;;;;;;5087881;28;20101;-47
2023/01/20 07:20:01;;;;;;;57.60;29.60;;;1.00;99.90;;;;;;5054173;28;20084;-49
2023/01/20 07:22:29;;;;;;;57.88;29.50;;;1.00;99.90;;;;;;5049480;28;20057;-49
2023/01/20 07:24:56;;;;;;;53.53;28.55;;;1.00;99.90;;;;;;5049922;28;20084;-51
2023/01/20 07:27:23;;;;;;;62.15;29.85;;;1.00;99.90;;;;;;5051695;28;20077;-50
2023/01/20 07:29:50;;;;;;;58.65;30.45;;;0.90;99.90;;;;;;5081783;28;20080;-49
2023/01/20 07:32:16;;;;;;;53.97;28.40;;;1.00;99.90;;;;;;5066591;28;20145;-50
2023/01/20 07:34:43;;;;;;;56.05;30.98;;;1.00;99.90;;;;;;5051199;28;20079;-48
2023/01/20 07:37:10;;;;;;;58.25;31.23;;;1.00;99.90;;;;;;5063106;28;20084;-51
2023/01/20 07:39:39;;;;;;;60.58;31.13;;;1.00;99.90;;;;;;5070095;28;20396;-45
2023/01/20 07:42:06;;;;;;;54.30;29.45;;;1.10;99.90;;;;;;5080531;28;20052;-45
2023/01/20 07:44:33;;;;;;;58.60;31.63;;;1.00;99.90;;;;;;5079163;28;20131;-53
2023/01/20 07:47:00;;;;;;;59.78;31.38;;;1.00;99.90;;;;;;5049679;28;20432;-49
2023/01/20 07:49:28;;;;;;;66.30;31.80;;;1.00;99.90;;;;;;5070125;28;20415;-47
2023/01/20 07:51:54;;;;;;;64.00;32.88;;;1.00;99.90;;;;;;5070083;28;20060;-43
2023/01/20 07:54:21;;;;;;;59.38;31.63;;;1.00;99.90;;;;;;5070229;28;20044;-46
2023/01/20 07:56:49;;;;;;;60.47;31.02;;;1.00;99.90;;;;;;5064733;28;20057;-47
2023/01/20 07:59:16;;;;;;;57.42;29.17;;;1.00;99.90;;;;;;5070190;28;20094;-51
2023/01/20 08:01:43;;;;;;;60.70;30.48;;;1.00;99.90;;;;;;5086409;28;20127;-49
2023/01/20 08:04:11;;;;;;;61.08;30.35;;;1.00;99.90;;;;;;5091107;28;20380;-51
2023/01/20 08:06:38;;;;;;;62.33;30.05;;;1.00;99.90;;;;;;5090213;28;20596;-48
2023/01/20 08:09:08;;;;;;;64.00;31.08;;;1.00;99.90;;;;;;5079223;28;20048;-50
2023/01/20 08:11:35;;;;;;;56.33;29.05;;;1.00;99.90;;;;;;5067279;28;20048;-49
2023/01/20 08:14:03;;;;;;;58.58;30.70;;;1.10;99.90;;;;;;5067992;28;20102;-49
2023/01/20 08:16:30;;;;;;;60.15;31.17;;;1.10;99.90;;;;;;5064294;28;20088;-50
2023/01/20 08:18:57;;;;;;;66.57;31.58;;;1.00;99.90;;;;;;5068215;28;20052;-51
2023/01/20 08:21:25;;;;;;;64.97;32.03;;;1.10;99.90;;;;;;5076318;28;20092;-53
2023/01/20 08:23:52;;;;;;;66.93;32.72;;;1.10;99.90;;;;;;5064021;28;20495;-53
2023/01/20 08:26:19;;;;;;;63.28;32.85;;;1.10;99.90;;;;;;5062794;28;20084;-51
2023/01/20 08:28:46;;;;;;;62.60;33.00;;;1.10;99.90;;;;;;5081700;28;20473;-50
2023/01/20 08:31:15;;;;;;;62.92;31.33;;;1.10;99.90;;;;;;5068217;28;20071;-41
2023/01/20 08:33:42;;;;;;;63.42;32.33;;;1.20;99.90;;;;;;5070828;28;20052;-50
2023/01/20 08:36:10;;;;;;;67.07;33.10;;;1.20;99.90;;;;;;5060857;28;20098;-48
2023/01/20 08:38:37;;;;;;;66.75;32.03;;;1.20;99.90;;;;;;5073790;28;20088;-55
2023/01/20 08:41:07;;;;;;;66.35;34.58;;;1.30;99.90;;;;;;5071343;28;20056;-48
2023/01/20 08:43:33;;;;;;;70.45;33.05;;;1.10;99.90;;;;;;5068438;28;20130;-51
2023/01/20 08:46:00;;;;;;;66.53;32.08;;;1.20;99.90;;;;;;5071415;28;20461;-47
2023/01/20 08:48:29;;;;;;;70.07;33.65;;;1.20;99.90;;;;;;5067111;28;20048;-52
2023/01/20 08:50:55;;;;;;;72.35;37.78;;;1.20;99.90;;;;;;5064677;28;20072;-54
2023/01/20 08:53:22;;;;;;;86.65;43.03;;;1.20;99.90;;;;;;5056434;28;20492;-54
2023/01/20 08:55:56;;;;;;;91.47;50.05;;;1.20;99.90;;;;;;5052735;28;20084;-49
2023/01/20 08:58:22;;;;;;;80.25;41.97;;;1.20;99.90;;;;;;5063063;28;20137;-54
2023/01/20 09:00:49;;;;;;;73.53;35.75;;;1.20;99.90;;;;;;5065035;28;20113;-50
2023/01/20 09:03:16;;;;;;;79.70;35.25;;;1.20;99.90;;;;;;5064802;28;20075;-57
2023/01/20 09:05:44;;;;;;;77.28;35.05;;;1.20;99.90;;;;;;5068668;28;20099;-53
2023/01/20 09:08:11;;;;;;;76.18;34.67;;;1.20;99.90;;;;;;5071151;28;20076;-53
2023/01/20 09:10:38;;;;;;;80.13;38.95;;;1.30;99.90;;;;;;5069944;28;20109;-56
2023/01/20 09:13:05;;;;;;;75.60;37.00;;;1.30;99.90;;;;;;5068141;28;20085;-57
2023/01/20 09:15:31;;;;;;;81.38;39.40;;;1.30;99.90;;;;;;5071397;28;20164;-55
2023/01/20 09:17:58;;;;;;;80.07;37.33;;;1.30;99.90;;;;;;5064963;28;20056;-52
2023/01/20 09:20:27;;;;;;;78.90;35.95;;;1.30;99.90;;;;;;5068023;28;20092;-56
2023/01/20 09:22:55;;;;;;;137.32;66.30;;;1.40;99.90;;;;;;5066629;28;20052;-56
2023/01/20 09:25:22;;;;;;;71.88;32.40;;;1.30;99.90;;;;;;5059215;28;20045;-55
2023/01/20 09:27:49;;;;;;;94.53;46.35;;;1.30;99.90;;;;;;5069783;28;20473;-50
2023/01/20 09:30:16;;;;;;;153.35;77.65;;;1.40;99.90;;;;;;5072354;28;20106;-53
2023/01/20 09:32:43;;;;;;;157.45;79.45;;;1.40;99.90;;;;;;5068680;28;20451;-57
2023/01/20 09:35:10;;;;;;;76.75;34.38;;;1.30;99.90;;;;;;5070396;28;20148;-54
2023/01/20 09:46:03;;;;;;;72.72;32.95;;;1.40;99.90;;;;;;5055364;28;20048;-41
2023/01/20 09:54:04;;;;;;;72.93;33.35;;;1.40;99.90;;;;;;5064928;28;20481;-56
2023/01/20 09:56:32;;;;;;;73.00;33.30;;;1.40;99.90;;;;;;5072074;28;20175;-57
2023/01/20 09:59:01;;;;;;;73.25;33.30;;;1.40;99.90;;;;;;5072401;28;20155;-50
2023/01/20 10:01:30;;;;;;;72.22;33.00;;;1.40;99.90;;;;;;5080472;28;20087;-53
2023/01/20 10:03:58;;;;;;;68.13;30.60;;;1.40;99.90;;;;;;5059788;28;20056;-53
2023/01/20 10:06:28;;;;;;;63.78;30.05;;;1.50;99.90;;;;;;5052815;28;20524;-53
2023/01/20 10:08:57;;;;;;;69.28;29.92;;;1.40;99.90;;;;;;5069748;28;20080;-51
2023/01/20 10:11:23;;;;;;;65.82;29.30;;;1.40;99.90;;;;;;5087157;28;20079;-52
2023/01/20 10:13:55;;;;;;;66.13;28.52;;;1.40;99.90;;;;;;5081053;28;20052;-55
2023/01/20 10:16:27;;;;;;;64.03;29.52;;;1.40;99.90;;;;;;5060877;28;20078;-57
2023/01/20 10:18:55;;;;;;;61.03;25.05;;;1.40;99.90;;;;;;5059803;28;20551;-46
2023/01/20 10:21:25;;;;;;;61.08;29.55;;;1.50;99.90;;;;;;5065250;28;20049;-53
2023/01/20 10:23:54;;;;;;;66.05;31.40;;;1.40;99.90;;;;;;5085932;28;20056;-52
2023/01/20 10:26:22;;;;;;;78.63;39.60;;;1.40;99.90;;;;;;5058606;28;20159;-52
2023/01/20 10:28:53;;;;;;;65.57;32.33;;;1.40;99.90;;;;;;5069881;28;20128;-49
2023/01/20 10:31:23;;;;;;;66.15;31.08;;;1.50;99.90;;;;;;5061789;28;20475;-46
2023/01/20 10:33:52;;;;;;;61.65;27.85;;;1.50;99.90;;;;;;5060574;28;20099;-53
2023/01/20 10:36:21;;;;;;;62.75;29.30;;;1.50;99.90;;;;;;5052070;28;20106;-55
2023/01/20 10:38:52;;;;;;;65.30;29.95;;;1.50;99.90;;;;;;5053840;28;20080;-54
2023/01/20 10:41:20;;;;;;;66.50;30.38;;;1.70;99.90;;;;;;5051710;28;20056;-46
2023/01/20 10:43:47;;;;;;;63.95;29.70;;;1.50;99.90;;;;;;5065056;28;20072;-53
2023/01/20 10:46:26;;;;;;;63.90;29.25;;;1.50;99.90;;;;;;5049703;28;20056;-49
2023/01/20 10:49:02;;;;;;;69.90;29.15;;;1.50;99.90;;;;;;5054254;28;20136;-55
2023/01/20 10:51:31;;;;;;;66.00;30.67;;;1.50;99.90;;;;;;5058794;28;20377;-49
2023/01/20 10:54:02;;;;;;;67.50;32.05;;;1.50;99.90;;;;;;5067039;28;20076;-55
2023/01/20 10:56:36;;;;;;;61.28;30.13;;;1.50;99.90;;;;;;5066136;28;20090;-49
2023/01/20 10:59:08;;;;;;;56.90;27.58;;;1.50;99.90;;;;;;5066714;28;20044;-46
2023/01/20 11:01:36;;;;;;;65.30;31.15;;;1.50;99.90;;;;;;5066346;28;20571;-51
2023/01/20 11:04:03;;;;;;;59.33;29.50;;;1.50;99.90;;;;;;5065072;28;20121;-51
2023/01/20 11:06:30;;;;;;;61.78;31.00;;;1.50;99.90;;;;;;5064023;28;20075;-52
2023/01/20 11:08:58;;;;;;;64.32;32.28;;;1.50;99.90;;;;;;5064634;28;20084;-57
2023/01/20 11:11:25;;;;;;;62.63;29.63;;;1.50;99.90;;;;;;5070763;28;20089;-57
2023/01/20 11:13:52;;;;;;;58.45;30.70;;;1.60;99.90;;;;;;5065676;28;20127;-53
2023/01/20 11:16:21;;;;;;;55.00;25.05;;;1.60;99.90;;;;;;5059029;28;20091;-50
2023/01/20 11:19:00;;;;;;;61.13;28.55;;;1.60;99.90;;;;;;5065127;28;20135;-50
2023/01/20 11:21:28;;;;;;;57.67;27.27;;;1.60;99.90;;;;;;5065999;28;20624;-57
2023/01/20 11:23:56;;;;;;;62.15;29.70;;;1.60;99.90;;;;;;5065872;28;20040;-45
2023/01/20 11:26:24;;;;;;;58.95;28.63;;;1.60;99.90;;;;;;5067108;28;20087;-55
2023/01/20 11:28:55;;;;;;;59.15;29.52;;;1.60;99.90;;;;;;5068930;28;20052;-50
2023/01/20 11:31:22;;;;;;;63.33;27.45;;;1.50;99.90;;;;;;5061807;28;20048;-56
2023/01/20 11:33:56;;;;;;;54.55;26.63;;;1.50;99.90;;;;;;5068259;28;20455;-51
2023/01/20 11:36:25;;;;;;;63.42;30.70;;;1.60;99.90;;;;;;5060522;28;20186;-56
2023/01/20 11:38:52;;;;;;;66.97;36.20;;;1.50;99.90;;;;;;5061437;28;20072;-54
2023/01/20 11:41:19;;;;;;;84.47;40.97;;;1.60;99.90;;;;;;5091457;28;20076;-56
2023/01/20 11:43:46;;;;;;;60.78;28.08;;;1.50;99.90;;;;;;5076123;28;20064;-52
2023/01/20 11:46:24;;;;;;;69.32;34.08;;;1.60;99.90;;;;;;5067426;28;20048;-56
2023/01/20 11:48:51;;;;;;;64.90;31.67;;;1.50;99.90;;;;;;5067537;28;20091;-55
2023/01/20 11:51:24;;;;;;;60.50;28.45;;;1.60;99.90;;;;;;5067316;28;20363;-56
2023/01/20 11:53:52;;;;;;;60.47;28.55;;;1.60;99.90;;;;;;5065767;28;20059;-53
2023/01/20 11:56:20;;;;;;;60.42;29.92;;;1.60;99.90;;;;;;5080591;28;20123;-56
2023/01/20 11:58:53;;;;;;;72.53;33.42;;;1.60;99.90;;;;;;5070405;28;20056;-53
2023/01/20 12:01:23;;;;;;;64.28;29.63;;;1.60;99.90;;;;;;5072746;28;20080;-55
2023/01/20 12:04:10;;;;;;;63.80;29.08;;;1.60;99.90;;;;;;5067810;28;20053;-56
2023/01/20 12:06:38;;;;;;;66.95;28.75;;;1.60;99.90;;;;;;5067433;28;20084;-57
2023/01/20 12:09:10;;;;;;;67.63;29.95;;;1.60;99.90;;;;;;5071046;28;20487;-46
2023/01/20 12:11:40;;;;;;;60.28;29.30;;;1.60;99.90;;;;;;5063693;28;20118;-56
2023/01/20 12:14:27;;;;;;;62.95;28.20;;;1.60;99.90;;;;;;5080049;28;20078;-53
2023/01/20 12:17:16;;;;;;;60.33;29.20;;;1.70;99.90;;;;;;5081188;28;20110;-57
2023/01/20 12:20:02;;;;;;;63.67;30.15;;;1.60;99.90;;;;;;5061851;28;20401;-58
2023/01/20 12:22:35;;;;;;;48.15;22.73;;;1.60;99.90;;;;;;5057697;28;20152;-59
2023/01/20 12:25:12;;;;;;;55.03;25.30;;;1.60;99.90;;;;;;5072971;28;20056;-57
2023/01/20 12:27:44;;;;;;;62.08;27.42;;;1.60;99.90;;;;;;5064800;28;20062;-58
2023/01/20 12:30:40;;;;;;;58.88;27.48;;;1.70;99.90;;;;;;5094861;28;20080;-56
2023/01/20 12:33:12;;;;;;;64.25;29.02;;;1.60;99.90;;;;;;5051832;28;20541;-58
2023/01/20 12:35:42;;;;;;;59.22;28.95;;;1.60;99.90;;;;;;5055524;28;20160;-58
2023/01/20 12:38:11;;;;;;;56.42;27.98;;;1.60;99.90;;;;;;5070428;28;20080;-56
2023/01/20 12:40:41;;;;;;;60.53;27.52;;;1.70;99.90;;;;;;5071687;28;20052;-58
2023/01/20 12:43:42;;;;;;;61.58;28.75;;;1.70;99.90;;;;;;5072023;28;20049;-52
2023/01/20 12:46:34;;;;;;;61.90;29.13;;;1.70;99.90;;;;;;5022370;28;20088;-57
2023/01/20 12:49:13;;;;;;;58.33;28.83;;;1.70;99.90;;;;;;5063313;28;20539;-52
2023/01/20 12:51:45;;;;;;;59.03;27.13;;;1.70;99.90;;;;;;5073966;28;20087;-58
2023/01/20 12:54:31;;;;;;;57.00;27.95;;;1.70;99.90;;;;;;5074965;28;20504;-58
2023/01/20 12:57:02;;;;;;;51.58;26.63;;;1.70;99.90;;;;;;5073142;28;20099;-55
2023/01/20 12:59:35;;;;;;;60.58;27.70;;;1.70;99.90;;;;;;5073274;28;20123;-58
2023/01/20 13:02:10;;;;;;;57.97;28.15;;;1.70;99.90;;;;;;5068954;28;20487;-57